sensor_id;sensor_type;location;lat;lon;timestamp;pressure;altitude;pressure_sealevel;temperature;humidity
63819;BME280;49970;54.976;73.248;2023-03-04T00:01:01;100338.16;;;-13.27;79.24
63819;BME280;49970;54.976;73.248;2023-03-04T00:03:27;100335.53;;;-13.30;78.81
63819;BME280;49970;54.976;73.248;2023-03-04T00:05:54;100344.84;;;-13.31;78.94
63819;BME280;49970;54.976;73.248;2023-03-04T00:08:20;100338.75;;;-13.37;78.08
63819;BME280;49970;54.976;73.248;2023-03-04T00:10:46;100343.59;;;-13.46;79.25
63819;BME280;49970;54.976;73.248;2023-03-04T00:13:12;100338.34;;;-13.54;78.40
63819;BME280;49970;54.976;73.248;2023-03-04T00:15:38;100345.03;;;-13.58;78.50
63819;BME280;49970;54.976;73.248;2023-03-04T00:18:05;100349.09;;;-13.64;79.02
63819;BME280;49970;54.976;73.248;2023-03-04T00:20:41;100351.53;;;-13.67;79.55
63819;BME280;49970;54.976;73.248;2023-03-04T00:23:07;100358.31;;;-13.68;79.04
63819;BME280;49970;54.976;73.248;2023-03-04T00:25:34;100354.78;;;-13.73;78.84
63819;BME280;49970;54.976;73.248;2023-03-04T00:28:04;100363.19;;;-13.75;78.33
63819;BME280;49970;54.976;73.248;2023-03-04T00:30:31;100369.91;;;-13.79;79.76
63819;BME280;49970;54.976;73.248;2023-03-04T00:32:57;100361.25;;;-13.84;79.37
63819;BME280;49970;54.976;73.248;2023-03-04T00:35:23;100367.22;;;-13.84;79.74
63819;BME280;49970;54.976;73.248;2023-03-04T00:37:49;100359.38;;;-13.91;79.75
63819;BME280;49970;54.976;73.248;2023-03-04T00:40:20;100366.22;;;-13.89;78.91
63819;BME280;49970;54.976;73.248;2023-03-04T00:42:47;100370.47;;;-13.89;79.54
63819;BME280;49970;54.976;73.248;2023-03-04T00:45:13;100375.56;;;-13.89;79.82
63819;BME280;49970;54.976;73.248;2023-03-04T00:47:39;100384.03;;;-13.90;80.62
63819;BME280;49970;54.976;73.248;2023-03-04T00:50:11;100387.41;;;-13.90;80.14
63819;BME280;49970;54.976;73.248;2023-03-04T00:52:41;100387.47;;;-13.88;79.24
63819;BME280;49970;54.976;73.248;2023-03-04T00:55:08;100384.97;;;-13.87;78.98
63819;BME280;49970;54.976;73.248;2023-03-04T00:57:34;100387.41;;;-13.90;79.25
63819;BME280;49970;54.976;73.248;2023-03-04T01:00:00;100394.97;;;-13.93;80.14
63819;BME280;49970;54.976;73.248;2023-03-04T01:02:27;100394.00;;;-13.96;80.06
63819;BME280;49970;54.976;73.248;2023-03-04T01:04:53;100392.19;;;-14.00;79.56
63819;BME280;49970;54.976;73.248;2023-03-04T01:07:20;100393.84;;;-14.02;79.43
63819;BME280;49970;54.976;73.248;2023-03-04T01:09:52;100398.84;;;-14.06;79.98
63819;BME280;49970;54.976;73.248;2023-03-04T01:12:18;100404.72;;;-14.08;80.16
63819;BME280;49970;54.976;73.248;2023-03-04T01:14:55;100397.03;;;-14.10;79.44
63819;BME280;49970;54.976;73.248;2023-03-04T01:17:27;100391.81;;;-14.14;81.05
63819;BME280;49970;54.976;73.248;2023-03-04T01:19:53;100396.94;;;-14.13;79.49
63819;BME280;49970;54.976;73.248;2023-03-04T01:22:19;100396.03;;;-14.15;80.27
63819;BME280;49970;54.976;73.248;2023-03-04T01:24:47;100382.22;;;-14.23;79.92
63819;BME280;49970;54.976;73.248;2023-03-04T01:27:18;100402.81;;;-14.15;80.70
63819;BME280;49970;54.976;73.248;2023-03-04T01:29:44;100395.06;;;-14.18;81.04
63819;BME280;49970;54.976;73.248;2023-03-04T01:32:10;100403.56;;;-14.18;79.89
63819;BME280;49970;54.976;73.248;2023-03-04T01:34:46;100382.84;;;-14.30;81.77
63819;BME280;49970;54.976;73.248;2023-03-04T01:37:13;100401.81;;;-14.20;81.11
63819;BME280;49970;54.976;73.248;2023-03-04T01:39:39;100403.56;;;-14.18;81.80
63819;BME280;49970;54.976;73.248;2023-03-04T01:42:15;100406.06;;;-14.19;81.80
63819;BME280;49970;54.976;73.248;2023-03-04T01:44:43;100396.72;;;-14.20;80.92
63819;BME280;49970;54.976;73.248;2023-03-04T01:47:10;100413.94;;;-14.12;81.27
63819;BME280;49970;54.976;73.248;2023-03-04T01:49:36;100420.66;;;-14.14;81.78
63819;BME280;49970;54.976;73.248;2023-03-04T01:52:03;100425.84;;;-14.11;81.30
63819;BME280;49970;54.976;73.248;2023-03-04T01:54:29;100419.09;;;-14.09;80.88
63819;BME280;49970;54.976;73.248;2023-03-04T01:57:01;100421.75;;;-14.06;82.03
63819;BME280;49970;54.976;73.248;2023-03-04T01:59:32;100415.91;;;-14.03;80.90
63819;BME280;49970;54.976;73.248;2023-03-04T02:02:00;100417.66;;;-14.00;81.70
63819;BME280;49970;54.976;73.248;2023-03-04T02:04:33;100417.66;;;-14.00;81.08
63819;BME280;49970;54.976;73.248;2023-03-04T02:07:01;100421.94;;;-13.99;81.28
63819;BME280;49970;54.976;73.248;2023-03-04T02:09:28;100425.34;;;-13.99;81.28
63819;BME280;49970;54.976;73.248;2023-03-04T02:11:55;100416.88;;;-13.98;82.04
63819;BME280;49970;54.976;73.248;2023-03-04T02:14:32;100424.66;;;-13.93;82.22
63819;BME280;49970;54.976;73.248;2023-03-04T02:16:58;100418.66;;;-13.95;81.90
63819;BME280;49970;54.976;73.248;2023-03-04T02:22:25;100423.69;;;-13.97;81.68
63819;BME280;49970;54.976;73.248;2023-03-04T02:25:00;100427.94;;;-13.97;81.40
63819;BME280;49970;54.976;73.248;2023-03-04T02:27:28;100427.03;;;-13.99;81.97
63819;BME280;49970;54.976;73.248;2023-03-04T02:29:54;100426.19;;;-14.00;83.02
63819;BME280;49970;54.976;73.248;2023-03-04T02:32:30;100426.38;;;-13.92;83.15
63819;BME280;49970;54.976;73.248;2023-03-04T02:35:02;100431.56;;;-13.89;83.08
63819;BME280;49970;54.976;73.248;2023-03-04T02:37:32;100429.03;;;-13.88;82.69
63819;BME280;49970;54.976;73.248;2023-03-04T02:39:59;100438.50;;;-13.84;81.60
63819;BME280;49970;54.976;73.248;2023-03-04T02:42:26;100435.28;;;-13.78;82.63
63819;BME280;49970;54.976;73.248;2023-03-04T02:44:59;100433.69;;;-13.74;83.60
63819;BME280;49970;54.976;73.248;2023-03-04T02:47:25;100440.59;;;-13.70;82.51
63819;BME280;49970;54.976;73.248;2023-03-04T02:49:54;100435.53;;;-13.69;82.88
63819;BME280;49970;54.976;73.248;2023-03-04T02:52:23;100439.94;;;-13.63;82.48
63819;BME280;49970;54.976;73.248;2023-03-04T02:54:50;100448.53;;;-13.60;81.75
63819;BME280;49970;54.976;73.248;2023-03-04T02:57:17;100435.88;;;-13.57;81.72
63819;BME280;49970;54.976;73.248;2023-03-04T02:59:48;100443.66;;;-13.52;82.79
63819;BME280;49970;54.976;73.248;2023-03-04T03:02:28;100439.41;;;-13.51;82.94
63819;BME280;49970;54.976;73.248;2023-03-04T03:04:56;100441.13;;;-13.50;82.37
63819;BME280;49970;54.976;73.248;2023-03-04T03:07:22;100443.81;;;-13.46;82.33
63819;BME280;49970;54.976;73.248;2023-03-04T03:09:48;100450.66;;;-13.45;82.74
63819;BME280;49970;54.976;73.248;2023-03-04T03:12:26;100454.09;;;-13.43;82.36
63819;BME280;49970;54.976;73.248;2023-03-04T03:14:53;100460.13;;;-13.39;83.31
63819;BME280;49970;54.976;73.248;2023-03-04T03:17:20;100464.53;;;-13.34;82.71
63819;BME280;49970;54.976;73.248;2023-03-04T03:19:51;100466.41;;;-13.28;81.77
63819;BME280;49970;54.976;73.248;2023-03-04T03:22:27;100470.78;;;-13.21;81.69
63819;BME280;49970;54.976;73.248;2023-03-04T03:24:54;100476.19;;;-13.10;81.84
63819;BME280;49970;54.976;73.248;2023-03-04T03:27:20;100473.84;;;-13.02;82.14
63819;BME280;49970;54.976;73.248;2023-03-04T03:29:51;100466.44;;;-12.93;83.06
63819;BME280;49970;54.976;73.248;2023-03-04T03:32:28;100483.53;;;-12.89;82.35
63819;BME280;49970;54.976;73.248;2023-03-04T03:34:54;100474.25;;;-12.87;82.97
63819;BME280;49970;54.976;73.248;2023-03-04T03:37:20;100478.75;;;-12.77;82.23
63819;BME280;49970;54.976;73.248;2023-03-04T03:39:46;100476.34;;;-12.71;83.28
63819;BME280;49970;54.976;73.248;2023-03-04T03:42:13;100474.91;;;-12.61;83.26
63819;BME280;49970;54.976;73.248;2023-03-04T03:44:49;100483.00;;;-12.43;83.29
63819;BME280;49970;54.976;73.248;2023-03-04T03:47:20;100488.38;;;-12.32;82.54
63819;BME280;49970;54.976;73.248;2023-03-04T03:49:46;100476.53;;;-12.28;83.35
63819;BME280;49970;54.976;73.248;2023-03-04T03:52:12;100489.53;;;-12.18;82.82
63819;BME280;49970;54.976;73.248;2023-03-04T03:54:38;100490.50;;;-12.13;82.77
63819;BME280;49970;54.976;73.248;2023-03-04T03:57:05;100494.94;;;-12.06;82.83
63819;BME280;49970;54.976;73.248;2023-03-04T03:59:36;100495.03;;;-12.01;82.86
63819;BME280;49970;54.976;73.248;2023-03-04T04:02:02;100498.72;;;-11.90;83.30
63819;BME280;49970;54.976;73.248;2023-03-04T04:04:28;100497.16;;;-11.80;82.74
63819;BME280;49970;54.976;73.248;2023-03-04T04:06:54;100494.69;;;-11.77;82.69
63819;BME280;49970;54.976;73.248;2023-03-04T04:09:21;100496.50;;;-11.71;82.77
63819;BME280;49970;54.976;73.248;2023-03-04T04:11:47;100501.78;;;-11.65;82.85
63819;BME280;49970;54.976;73.248;2023-03-04T04:14:23;100501.88;;;-11.61;82.32
63819;BME280;49970;54.976;73.248;2023-03-04T04:16:49;100507.03;;;-11.58;82.72
63819;BME280;49970;54.976;73.248;2023-03-04T04:19:17;100506.41;;;-11.46;82.86
63819;BME280;49970;54.976;73.248;2023-03-04T04:21:45;100510.13;;;-11.32;82.91
63819;BME280;49970;54.976;73.248;2023-03-04T04:24:20;100507.78;;;-11.21;82.34
63819;BME280;49970;54.976;73.248;2023-03-04T04:26:46;100503.75;;;-11.08;82.80
63819;BME280;49970;54.976;73.248;2023-03-04T04:29:13;100495.41;;;-10.99;82.65
63819;BME280;49970;54.976;73.248;2023-03-04T04:31:40;100498.16;;;-10.89;82.41
63819;BME280;49970;54.976;73.248;2023-03-04T04:34:06;100488.81;;;-10.87;82.50
63819;BME280;49970;54.976;73.248;2023-03-04T04:36:32;100502.81;;;-10.68;82.97
63819;BME280;49970;54.976;73.248;2023-03-04T04:38:59;100505.59;;;-10.54;82.85
63819;BME280;49970;54.976;73.248;2023-03-04T04:41:28;100507.56;;;-10.39;82.60
63819;BME280;49970;54.976;73.248;2023-03-04T04:43:57;100509.50;;;-10.26;82.33
63819;BME280;49970;54.976;73.248;2023-03-04T04:46:28;100510.50;;;-10.15;81.74
63819;BME280;49970;54.976;73.248;2023-03-04T04:48:55;100508.88;;;-10.08;82.56
63819;BME280;49970;54.976;73.248;2023-03-04T04:51:32;100512.34;;;-10.05;82.37
63819;BME280;49970;54.976;73.248;2023-03-04T04:53:59;100508.13;;;-10.02;81.94
63819;BME280;49970;54.976;73.248;2023-03-04T04:56:27;100511.63;;;-9.97;81.58
63819;BME280;49970;54.976;73.248;2023-03-04T04:58:56;100520.41;;;-9.82;82.56
63819;BME280;49970;54.976;73.248;2023-03-04T05:01:24;100528.28;;;-9.66;81.67
63819;BME280;49970;54.976;73.248;2023-03-04T05:03:50;100528.41;;;-9.59;82.29
63819;BME280;49970;54.976;73.248;2023-03-04T05:06:25;100539.81;;;-9.38;81.38
63819;BME280;49970;54.976;73.248;2023-03-04T05:08:52;100534.78;;;-9.31;81.05
63819;BME280;49970;54.976;73.248;2023-03-04T05:11:28;100523.75;;;-9.23;80.93
63819;BME280;49970;54.976;73.248;2023-03-04T05:14:03;100523.75;;;-9.22;81.77
63819;BME280;49970;54.976;73.248;2023-03-04T05:16:29;100539.31;;;-9.10;81.66
63819;BME280;49970;54.976;73.248;2023-03-04T05:18:56;100532.47;;;-9.11;80.45
63819;BME280;49970;54.976;73.248;2023-03-04T05:21:22;100542.75;;;-9.08;81.80
63819;BME280;49970;54.976;73.248;2023-03-04T05:23:49;100539.38;;;-9.04;80.75
63819;BME280;49970;54.976;73.248;2023-03-04T05:26:16;100541.97;;;-9.00;80.94
63819;BME280;49970;54.976;73.248;2023-03-04T05:28:48;100544.59;;;-8.96;81.07
63819;BME280;49970;54.976;73.248;2023-03-04T05:31:24;100549.00;;;-8.86;81.24
63819;BME280;49970;54.976;73.248;2023-03-04T05:33:55;100542.22;;;-8.81;80.81
63819;BME280;49970;54.976;73.248;2023-03-04T05:36:22;100550.00;;;-8.70;80.73
63819;BME280;49970;54.976;73.248;2023-03-04T05:38:49;100538.97;;;-8.63;80.79
63819;BME280;49970;54.976;73.248;2023-03-04T05:41:21;100546.75;;;-8.54;81.47
63819;BME280;49970;54.976;73.248;2023-03-04T05:43:48;100554.53;;;-8.47;80.90
63819;BME280;49970;54.976;73.248;2023-03-04T05:46:20;100553.78;;;-8.39;81.64
63819;BME280;49970;54.976;73.248;2023-03-04T05:48:59;100552.06;;;-8.35;81.01
63819;BME280;49970;54.976;73.248;2023-03-04T05:51:26;100546.06;;;-8.34;80.38
63819;BME280;49970;54.976;73.248;2023-03-04T05:53:57;100544.41;;;-8.31;80.52
63819;BME280;49970;54.976;73.248;2023-03-04T05:56:23;100544.44;;;-8.26;80.31
63819;BME280;49970;54.976;73.248;2023-03-04T05:58:49;100542.78;;;-8.18;80.83
63819;BME280;49970;54.976;73.248;2023-03-04T06:01:25;100540.28;;;-8.10;81.21
63819;BME280;49970;54.976;73.248;2023-03-04T06:03:52;100540.38;;;-8.01;80.64
63819;BME280;49970;54.976;73.248;2023-03-04T06:06:18;100534.44;;;-7.92;80.93
63819;BME280;49970;54.976;73.248;2023-03-04T06:08:44;100537.06;;;-7.85;80.97
63819;BME280;49970;54.976;73.248;2023-03-04T06:11:10;100533.66;;;-7.81;80.67
63819;BME280;49970;54.976;73.248;2023-03-04T06:13:36;100541.41;;;-7.76;80.18
63819;BME280;49970;54.976;73.248;2023-03-04T06:16:03;100529.41;;;-7.74;80.71
63819;BME280;49970;54.976;73.248;2023-03-04T06:18:39;100529.44;;;-7.69;80.56
63819;BME280;49970;54.976;73.248;2023-03-04T06:21:15;100526.94;;;-7.60;80.11
63819;BME280;49970;54.976;73.248;2023-03-04T06:23:52;100523.53;;;-7.53;80.66
63819;BME280;49970;54.976;73.248;2023-03-04T06:26:18;100521.84;;;-7.49;79.86
63819;BME280;49970;54.976;73.248;2023-03-04T06:28:44;100526.16;;;-7.47;80.16
63819;BME280;49970;54.976;73.248;2023-03-04T06:31:16;100539.00;;;-7.45;80.37
63819;BME280;49970;54.976;73.248;2023-03-04T06:33:42;100533.03;;;-7.40;80.52
63819;BME280;49970;54.976;73.248;2023-03-04T06:36:13;100534.81;;;-7.28;80.84
63819;BME280;49970;54.976;73.248;2023-03-04T06:38:39;100526.31;;;-7.18;80.65
63819;BME280;49970;54.976;73.248;2023-03-04T06:41:12;100528.03;;;-7.11;80.76
63819;BME280;49970;54.976;73.248;2023-03-04T06:43:48;100522.06;;;-7.04;80.84
63819;BME280;49970;54.976;73.248;2023-03-04T06:46:14;100499.72;;;-7.11;80.71
63819;BME280;49970;54.976;73.248;2023-03-04T06:48:40;100519.50;;;-6.90;80.87
63819;BME280;49970;54.976;73.248;2023-03-04T06:51:08;100527.28;;;-6.84;80.52
63819;BME280;49970;54.976;73.248;2023-03-04T06:53:39;100513.53;;;-6.89;80.42
63819;BME280;49970;54.976;73.248;2023-03-04T06:56:07;100521.28;;;-6.80;80.92
63819;BME280;49970;54.976;73.248;2023-03-04T06:58:35;100518.72;;;-6.77;80.55
63819;BME280;49970;54.976;73.248;2023-03-04T07:01:22;100529.03;;;-6.69;80.78
63819;BME280;49970;54.976;73.248;2023-03-04T07:03:50;100524.75;;;-6.61;81.19
63819;BME280;49970;54.976;73.248;2023-03-04T07:06:18;100534.22;;;-6.49;81.53
63819;BME280;49970;54.976;73.248;2023-03-04T07:08:45;100528.22;;;-6.46;80.94
63819;BME280;49970;54.976;73.248;2023-03-04T07:11:17;100537.66;;;-6.44;80.74
63819;BME280;49970;54.976;73.248;2023-03-04T07:13:43;100539.41;;;-6.38;81.09
63819;BME280;49970;54.976;73.248;2023-03-04T07:16:12;100536.84;;;-6.29;81.25
63819;BME280;49970;54.976;73.248;2023-03-04T07:18:49;100537.69;;;-6.29;80.91
63819;BME280;49970;54.976;73.248;2023-03-04T07:21:16;100548.88;;;-6.22;81.57
63819;BME280;49970;54.976;73.248;2023-03-04T07:23:43;100548.88;;;-6.16;81.63
63819;BME280;49970;54.976;73.248;2023-03-04T07:26:09;100535.97;;;-6.16;80.91
63819;BME280;49970;54.976;73.248;2023-03-04T07:28:37;100542.84;;;-6.21;80.89
63819;BME280;49970;54.976;73.248;2023-03-04T07:31:28;100543.72;;;-6.27;80.98
63819;BME280;49970;54.976;73.248;2023-03-04T07:34:01;100541.09;;;-6.36;80.99
63819;BME280;49970;54.976;73.248;2023-03-04T07:36:38;100534.25;;;-6.34;81.18
63819;BME280;49970;54.976;73.248;2023-03-04T07:39:10;100537.69;;;-6.32;81.36
63819;BME280;49970;54.976;73.248;2023-03-04T07:41:38;100540.25;;;-6.27;81.82
63819;BME280;49970;54.976;73.248;2023-03-04T07:44:11;100529.97;;;-6.18;82.10
63819;BME280;49970;54.976;73.248;2023-03-04T07:46:38;100532.56;;;-6.18;81.64
63819;BME280;49970;54.976;73.248;2023-03-04T07:49:11;100524.81;;;-6.15;81.20
63819;BME280;49970;54.976;73.248;2023-03-04T07:51:44;100525.66;;;-6.16;81.98
63819;BME280;49970;54.976;73.248;2023-03-04T07:54:10;100527.38;;;-6.12;82.20
63819;BME280;49970;54.976;73.248;2023-03-04T07:56:42;100525.69;;;-6.05;82.17
63819;BME280;49970;54.976;73.248;2023-03-04T07:59:08;100529.97;;;-5.99;81.84
63819;BME280;49970;54.976;73.248;2023-03-04T08:01:43;100523.09;;;-5.97;81.92
63819;BME280;49970;54.976;73.248;2023-03-04T08:04:10;100524.81;;;-5.95;81.82
63819;BME280;49970;54.976;73.248;2023-03-04T08:06:36;100511.94;;;-5.96;81.73
63819;BME280;49970;54.976;73.248;2023-03-04T08:09:05;100523.94;;;-5.95;81.62
63819;BME280;49970;54.976;73.248;2023-03-04T08:11:42;100521.38;;;-5.97;81.40
63819;BME280;49970;54.976;73.248;2023-03-04T08:14:14;100521.38;;;-5.97;81.60
63819;BME280;49970;54.976;73.248;2023-03-04T08:16:40;100524.81;;;-5.93;82.40
63819;BME280;49970;54.976;73.248;2023-03-04T08:19:06;100521.34;;;-5.89;81.96
63819;BME280;49970;54.976;73.248;2023-03-04T08:21:34;100529.09;;;-5.85;82.54
63819;BME280;49970;54.976;73.248;2023-03-04T08:24:01;100525.63;;;-5.79;82.30
63819;BME280;49970;54.976;73.248;2023-03-04T08:26:46;100528.19;;;-5.78;82.14
63819;BME280;49970;54.976;73.248;2023-03-04T08:29:17;100525.59;;;-5.73;82.06
63819;BME280;49970;54.976;73.248;2023-03-04T08:31:54;100533.34;;;-5.70;82.60
63819;BME280;49970;54.976;73.248;2023-03-04T08:34:23;100530.78;;;-5.68;82.64
63819;BME280;49970;54.976;73.248;2023-03-04T08:36:59;100541.09;;;-5.67;83.20
63819;BME280;49970;54.976;73.248;2023-03-04T08:39:25;100536.81;;;-5.68;83.08
63819;BME280;49970;54.976;73.248;2023-03-04T08:41:52;100541.09;;;-5.67;82.96
63819;BME280;49970;54.976;73.248;2023-03-04T08:44:28;100543.66;;;-5.67;83.55
63819;BME280;49970;54.976;73.248;2023-03-04T08:46:54;100538.50;;;-5.70;84.25
63819;BME280;49970;54.976;73.248;2023-03-04T08:49:21;100538.53;;;-5.68;84.19
63819;BME280;49970;54.976;73.248;2023-03-04T08:51:51;100534.19;;;-5.69;83.98
63819;BME280;49970;54.976;73.248;2023-03-04T08:54:17;100533.34;;;-5.67;83.84
63819;BME280;49970;54.976;73.248;2023-03-04T08:56:44;100523.88;;;-5.62;84.57
63819;BME280;49970;54.976;73.248;2023-03-04T08:59:20;100529.03;;;-5.60;85.39
63819;BME280;49970;54.976;73.248;2023-03-04T09:01:57;100525.59;;;-5.58;84.89
63819;BME280;49970;54.976;73.248;2023-03-04T09:04:28;100529.88;;;-5.57;85.64
63819;BME280;49970;54.976;73.248;2023-03-04T09:06:54;100530.72;;;-5.53;85.90
63819;BME280;49970;54.976;73.248;2023-03-04T09:09:21;100535.91;;;-5.50;85.88
63819;BME280;49970;54.976;73.248;2023-03-04T09:11:51;100537.63;;;-5.43;86.60
63819;BME280;49970;54.976;73.248;2023-03-04T09:14:28;100533.28;;;-5.33;86.22
63819;BME280;49970;54.976;73.248;2023-03-04T09:16:54;100529.84;;;-5.37;86.45
63819;BME280;49970;54.976;73.248;2023-03-04T09:19:25;100534.16;;;-5.39;85.85
63819;BME280;49970;54.976;73.248;2023-03-04T09:21:52;100541.06;;;-5.42;86.27
63819;BME280;49970;54.976;73.248;2023-03-04T09:24:31;100535.84;;;-5.39;86.71
63819;BME280;49970;54.976;73.248;2023-03-04T09:26:57;100540.16;;;-5.40;86.77
63819;BME280;49970;54.976;73.248;2023-03-04T09:29:23;100540.19;;;-5.38;86.18
63819;BME280;49970;54.976;73.248;2023-03-04T09:31:54;100542.75;;;-5.37;86.70
63819;BME280;49970;54.976;73.248;2023-03-04T09:34:26;100551.34;;;-5.36;86.13
63819;BME280;49970;54.976;73.248;2023-03-04T09:36:52;100553.06;;;-5.32;86.88
63819;BME280;49970;54.976;73.248;2023-03-04T09:39:18;100542.72;;;-5.21;86.86
63819;BME280;49970;54.976;73.248;2023-03-04T09:41:51;100541.81;;;-5.19;86.45
63819;BME280;49970;54.976;73.248;2023-03-04T09:44:33;100542.69;;;-5.12;86.54
63819;BME280;49970;54.976;73.248;2023-03-04T09:47:10;100541.81;;;-5.11;86.07
63819;BME280;49970;54.976;73.248;2023-03-04T09:49:57;100540.06;;;-5.11;86.54
63819;BME280;49970;54.976;73.248;2023-03-04T09:55:22;100542.66;;;-5.08;85.77
63819;BME280;49970;54.976;73.248;2023-03-04T10:00:40;100539.22;;;-5.11;85.98
63819;BME280;49970;54.976;73.248;2023-03-04T10:03:17;100542.69;;;-5.09;85.94
63819;BME280;49970;54.976;73.248;2023-03-04T10:05:48;100528.03;;;-5.06;85.86
63819;BME280;49970;54.976;73.248;2023-03-04T10:08:23;100535.75;;;-5.03;86.45
63819;BME280;49970;54.976;73.248;2023-03-04T10:10:56;100540.06;;;-5.02;85.95
63819;BME280;49970;54.976;73.248;2023-03-04T10:13:50;100542.63;;;-5.03;85.96
63819;BME280;49970;54.976;73.248;2023-03-04T10:16:28;100541.78;;;-5.01;86.18
63819;BME280;49970;54.976;73.248;2023-03-04T10:21:49;100543.47;;;-4.98;86.37
63819;BME280;49970;54.976;73.248;2023-03-04T10:24:18;100548.63;;;-4.98;86.78
63819;BME280;49970;54.976;73.248;2023-03-04T10:27:04;100542.63;;;-4.97;86.50
63819;BME280;49970;54.976;73.248;2023-03-04T10:29:32;100542.63;;;-4.98;86.61
63819;BME280;49970;54.976;73.248;2023-03-04T10:31:59;100544.34;;;-4.99;87.14
63819;BME280;49970;54.976;73.248;2023-03-04T10:34:30;100535.72;;;-4.98;87.46
63819;BME280;49970;54.976;73.248;2023-03-04T10:37:01;100534.88;;;-4.95;87.63
63819;BME280;49970;54.976;73.248;2023-03-04T10:39:30;100538.28;;;-4.93;87.46
63819;BME280;49970;54.976;73.248;2023-03-04T10:42:02;100539.97;;;-4.86;87.24
63819;BME280;49970;54.976;73.248;2023-03-04T10:44:30;100542.53;;;-4.79;87.81
63819;BME280;49970;54.976;73.248;2023-03-04T10:46:57;100527.88;;;-4.72;87.76
63819;BME280;49970;54.976;73.248;2023-03-04T10:49:50;100524.41;;;-4.69;87.18
63819;BME280;49970;54.976;73.248;2023-03-04T10:53:40;100530.41;;;-4.69;87.68
63819;BME280;49970;54.976;73.248;2023-03-04T10:58:03;100528.69;;;-4.67;86.94
63819;BME280;49970;54.976;73.248;2023-03-04T11:01:53;100533.88;;;-4.73;87.95
63819;BME280;49970;54.976;73.248;2023-03-04T11:05:44;100528.72;;;-4.74;87.25
63819;BME280;49970;54.976;73.248;2023-03-04T11:16:57;100546.84;;;-4.79;86.70
63819;BME280;49970;54.976;73.248;2023-03-04T11:20:29;100536.50;;;-4.82;87.09
63819;BME280;49970;54.976;73.248;2023-03-04T11:23:42;100544.28;;;-4.81;87.78
63819;BME280;49970;54.976;73.248;2023-03-04T11:26:23;100535.66;;;-4.81;87.42
63819;BME280;49970;54.976;73.248;2023-03-04T11:28:55;100543.41;;;-4.81;88.01
63819;BME280;49970;54.976;73.248;2023-03-04T11:31:45;100545.13;;;-4.80;87.83
63819;BME280;49970;54.976;73.248;2023-03-04T11:43:17;100545.09;;;-4.77;88.35
63819;BME280;49970;54.976;73.248;2023-03-04T11:51:27;100546.81;;;-4.73;88.60
63819;BME280;49970;54.976;73.248;2023-03-04T11:57:17;100535.59;;;-4.70;88.89
63819;BME280;49970;54.976;73.248;2023-03-04T12:02:47;100541.59;;;-4.68;88.59
63819;BME280;49970;54.976;73.248;2023-03-04T12:05:36;100539.03;;;-4.67;89.06
63819;BME280;49970;54.976;73.248;2023-03-04T12:11:26;100541.63;;;-4.64;89.17
63819;BME280;49970;54.976;73.248;2023-03-04T12:22:42;100547.63;;;-4.63;89.46
63819;BME280;49970;54.976;73.248;2023-03-04T12:25:35;100542.47;;;-4.63;89.45
63819;BME280;49970;54.976;73.248;2023-03-04T12:28:24;100545.03;;;-4.62;90.11
63819;BME280;49970;54.976;73.248;2023-03-04T12:37:03;100539.84;;;-4.60;90.40
63819;BME280;49970;54.976;73.248;2023-03-04T12:39:50;100529.50;;;-4.60;90.29
63819;BME280;49970;54.976;73.248;2023-03-04T12:42:27;100536.41;;;-4.59;90.84
63819;BME280;49970;54.976;73.248;2023-03-04T12:55:13;100548.44;;;-4.57;90.11
63819;BME280;49970;54.976;73.248;2023-03-04T12:59:00;100551.91;;;-4.58;89.69
63819;BME280;49970;54.976;73.248;2023-03-04T13:02:35;100556.19;;;-4.57;90.26
63819;BME280;49970;54.976;73.248;2023-03-04T13:08:47;100558.78;;;-4.55;90.71
63819;BME280;49970;54.976;73.248;2023-03-04T13:16:55;100561.34;;;-4.54;90.66
63819;BME280;49970;54.976;73.248;2023-03-04T13:19:50;100563.06;;;-4.53;90.43
63819;BME280;49970;54.976;73.248;2023-03-04T14:04:18;100594.97;;;-4.55;92.10
63819;BME280;49970;54.976;73.248;2023-03-04T14:06:50;100594.97;;;-4.55;91.69
63819;BME280;49970;54.976;73.248;2023-03-04T14:09:22;100601.00;;;-4.55;91.76
63819;BME280;49970;54.976;73.248;2023-03-04T14:11:50;100603.56;;;-4.53;91.49
63819;BME280;49970;54.976;73.248;2023-03-04T14:17:05;100596.66;;;-4.53;90.85
63819;BME280;49970;54.976;73.248;2023-03-04T14:19:43;100597.53;;;-4.54;91.34
63819;BME280;49970;54.976;73.248;2023-03-04T14:22:28;100602.72;;;-4.57;90.55
63819;BME280;49970;54.976;73.248;2023-03-04T14:25:06;100607.88;;;-4.57;89.89
63819;BME280;49970;54.976;73.248;2023-03-04T14:27:45;100600.16;;;-4.58;89.62
63819;BME280;49970;54.976;73.248;2023-03-04T14:30:23;100612.22;;;-4.59;89.62
63819;BME280;49970;54.976;73.248;2023-03-04T14:32:55;100605.34;;;-4.63;89.82
63819;BME280;49970;54.976;73.248;2023-03-04T14:35:28;100618.25;;;-4.58;89.99
63819;BME280;49970;54.976;73.248;2023-03-04T14:40:45;100621.69;;;-4.58;89.54
63819;BME280;49970;54.976;73.248;2023-03-04T14:43:18;100619.09;;;-4.58;88.97
63819;BME280;49970;54.976;73.248;2023-03-04T14:45:51;100621.66;;;-4.56;89.49
63819;BME280;49970;54.976;73.248;2023-03-04T14:48:31;100624.25;;;-4.56;89.24
63819;BME280;49970;54.976;73.248;2023-03-04T14:50:59;100626.84;;;-4.55;89.22
63819;BME280;49970;54.976;73.248;2023-03-04T14:53:28;100633.75;;;-4.55;88.86
63819;BME280;49970;54.976;73.248;2023-03-04T14:56:04;100635.44;;;-4.56;89.26
63819;BME280;49970;54.976;73.248;2023-03-04T14:58:52;100625.97;;;-4.57;89.26
63819;BME280;49970;54.976;73.248;2023-03-04T15:01:21;100629.44;;;-4.55;89.66
63819;BME280;49970;54.976;73.248;2023-03-04T15:04:04;100632.88;;;-4.56;89.82
63819;BME280;49970;54.976;73.248;2023-03-04T15:06:53;100635.44;;;-4.56;89.16
63819;BME280;49970;54.976;73.248;2023-03-04T15:09:24;100623.44;;;-4.60;89.95